sensor_id;sensor_type;location;lat;lon;timestamp;pressure;altitude;pressure_sealevel;temperature;humidity
3254;BME280;1639;42.804;23.342;2023-11-21T00:01:56;73915.50;;;-148.52;100.00
3254;BME280;1639;42.804;23.342;2023-11-21T00:04:22;73911.34;;;-148.52;100.00
3254;BME280;1639;42.804;23.342;2023-11-21T00:06:47;73901.00;;;-148.52;100.00
3254;BME280;1639;42.804;23.342;2023-11-21T00:09:14;73932.03;;;-148.52;100.00
3254;BME280;1639;42.804;23.342;2023-11-21T00:11:43;73950.66;;;-148.52;100.00
3254;BME280;1639;42.804;23.342;2023-11-21T00:14:09;73973.41;;;-148.52;100.00
3254;BME280;1639;42.804;23.342;2023-11-21T00:16:35;73987.91;;;-148.52;100.00
3254;BME280;1639;42.804;23.342;2023-11-21T00:19:00;73989.97;;;-148.52;100.00
3254;BME280;1639;42.804;23.342;2023-11-21T00:21:26;73989.97;;;-148.52;100.00
3254;BME280;1639;42.804;23.342;2023-11-21T00:23:51;73979.63;;;-148.52;100.00
3254;BME280;1639;42.804;23.342;2023-11-21T00:26:16;73973.41;;;-148.52;100.00
3254;BME280;1639;42.804;23.342;2023-11-21T00:28:42;73987.91;;;-148.52;100.00
3254;BME280;1639;42.804;23.342;2023-11-21T00:31:07;74010.66;;;-148.52;100.00
3254;BME280;1639;42.804;23.342;2023-11-21T00:33:33;73996.16;;;-148.52;100.00
3254;BME280;1639;42.804;23.342;2023-11-21T00:35:58;73989.97;;;-148.52;100.00
3254;BME280;1639;42.804;23.342;2023-11-21T00:38:24;73989.97;;;-148.52;100.00
3254;BME280;1639;42.804;23.342;2023-11-21T00:40:49;73985.81;;;-148.52;100.00
3254;BME280;1639;42.804;23.342;2023-11-21T00:43:15;73983.75;;;-148.52;100.00
3254;BME280;1639;42.804;23.342;2023-11-21T00:45:40;73977.56;;;-148.52;100.00
3254;BME280;1639;42.804;23.342;2023-11-21T00:48:05;73969.28;;;-148.52;100.00
3254;BME280;1639;42.804;23.342;2023-11-21T00:50:31;73969.28;;;-148.52;100.00
3254;BME280;1639;42.804;23.342;2023-11-21T00:52:57;73961.00;;;-148.52;100.00
3254;BME280;1639;42.804;23.342;2023-11-21T00:55:22;73965.16;;;-148.52;100.00
3254;BME280;1639;42.804;23.342;2023-11-21T00:57:48;73944.47;;;-148.52;100.00
3254;BME280;1639;42.804;23.342;2023-11-21T01:00:13;73936.19;;;-148.52;100.00
3254;BME280;1639;42.804;23.342;2023-11-21T01:02:43;73927.91;;;-148.52;100.00
3254;BME280;1639;42.804;23.342;2023-11-21T01:05:10;73925.84;;;-148.52;100.00
3254;BME280;1639;42.804;23.342;2023-11-21T01:07:36;73921.69;;;-148.52;100.00
3254;BME280;1639;42.804;23.342;2023-11-21T01:10:02;73923.78;;;-148.52;100.00
3254;BME280;1639;42.804;23.342;2023-11-21T01:12:28;73921.69;;;-148.52;100.00
3254;BME280;1639;42.804;23.342;2023-11-21T01:14:53;73915.50;;;-148.52;100.00
3254;BME280;1639;42.804;23.342;2023-11-21T01:17:19;73915.50;;;-148.52;100.00
3254;BME280;1639;42.804;23.342;2023-11-21T01:19:44;73915.50;;;-148.52;100.00
3254;BME280;1639;42.804;23.342;2023-11-21T01:22:10;73915.50;;;-148.52;100.00
3254;BME280;1639;42.804;23.342;2023-11-21T01:24:37;73911.34;;;-148.52;100.00
3254;BME280;1639;42.804;23.342;2023-11-21T01:27:02;73909.28;;;-148.52;100.00
3254;BME280;1639;42.804;23.342;2023-11-21T01:29:29;73913.44;;;-148.52;100.00
3254;BME280;1639;42.804;23.342;2023-11-21T01:31:55;73921.69;;;-148.52;100.00
3254;BME280;1639;42.804;23.342;2023-11-21T01:34:20;73994.09;;;-148.52;100.00
3254;BME280;1639;42.804;23.342;2023-11-21T01:36:46;73994.09;;;-148.52;100.00
3254;BME280;1639;42.804;23.342;2023-11-21T01:39:12;73989.97;;;-148.52;100.00
3254;BME280;1639;42.804;23.342;2023-11-21T01:41:40;73992.03;;;-148.52;100.00
3254;BME280;1639;42.804;23.342;2023-11-21T01:44:05;73983.75;;;-148.52;100.00
3254;BME280;1639;42.804;23.342;2023-11-21T01:46:35;73994.09;;;-148.52;100.00
3254;BME280;1639;42.804;23.342;2023-11-21T01:49:00;73994.09;;;-148.52;100.00
3254;BME280;1639;42.804;23.342;2023-11-21T01:51:26;73977.56;;;-148.52;100.00
3254;BME280;1639;42.804;23.342;2023-11-21T01:53:52;73981.69;;;-148.52;100.00
3254;BME280;1639;42.804;23.342;2023-11-21T01:56:18;73971.34;;;-148.52;100.00
3254;BME280;1639;42.804;23.342;2023-11-21T01:58:44;73977.56;;;-148.52;100.00
3254;BME280;1639;42.804;23.342;2023-11-21T02:01:12;73977.56;;;-148.52;100.00
3254;BME280;1639;42.804;23.342;2023-11-21T02:03:37;73975.47;;;-148.52;100.00
3254;BME280;1639;42.804;23.342;2023-11-21T02:06:03;73975.47;;;-148.52;100.00
3254;BME280;1639;42.804;23.342;2023-11-21T02:08:28;73983.75;;;-148.52;100.00
3254;BME280;1639;42.804;23.342;2023-11-21T02:10:53;73983.75;;;-148.52;100.00
3254;BME280;1639;42.804;23.342;2023-11-21T02:13:19;73971.34;;;-148.52;100.00
3254;BME280;1639;42.804;23.342;2023-11-21T02:15:44;73956.88;;;-148.52;100.00
3254;BME280;1639;42.804;23.342;2023-11-21T02:18:09;73961.00;;;-148.52;100.00
3254;BME280;1639;42.804;23.342;2023-11-21T02:20:36;73956.88;;;-148.52;100.00
3254;BME280;1639;42.804;23.342;2023-11-21T02:23:04;73956.88;;;-148.52;100.00
3254;BME280;1639;42.804;23.342;2023-11-21T02:25:31;73952.72;;;-148.52;100.00
3254;BME280;1639;42.804;23.342;2023-11-21T02:27:58;73944.47;;;-148.52;100.00
3254;BME280;1639;42.804;23.342;2023-11-21T02:30:25;73936.19;;;-148.52;100.00
3254;BME280;1639;42.804;23.342;2023-11-21T02:32:51;73936.19;;;-148.52;100.00
3254;BME280;1639;42.804;23.342;2023-11-21T02:35:20;73929.97;;;-148.52;100.00
3254;BME280;1639;42.804;23.342;2023-11-21T02:37:47;73927.91;;;-148.52;100.00
3254;BME280;1639;42.804;23.342;2023-11-21T02:40:12;73929.97;;;-148.52;100.00
3254;BME280;1639;42.804;23.342;2023-11-21T02:42:39;73923.78;;;-148.52;100.00
3254;BME280;1639;42.804;23.342;2023-11-21T02:45:06;73921.69;;;-148.52;100.00
3254;BME280;1639;42.804;23.342;2023-11-21T02:47:32;73921.69;;;-148.52;100.00
3254;BME280;1639;42.804;23.342;2023-11-21T02:49:57;73925.84;;;-148.52;100.00
3254;BME280;1639;42.804;23.342;2023-11-21T02:52:22;73938.25;;;-148.52;100.00
3254;BME280;1639;42.804;23.342;2023-11-21T02:54:48;73950.66;;;-148.52;100.00
3254;BME280;1639;42.804;23.342;2023-11-21T02:57:14;73967.22;;;-148.52;100.00
3254;BME280;1639;42.804;23.342;2023-11-21T02:59:39;73977.56;;;-148.52;100.00
3254;BME280;1639;42.804;23.342;2023-11-21T03:02:05;73998.25;;;-148.52;100.00
3254;BME280;1639;42.804;23.342;2023-11-21T03:04:33;74000.31;;;-148.52;100.00
3254;BME280;1639;42.804;23.342;2023-11-21T03:07:00;74004.44;;;-148.52;100.00
3254;BME280;1639;42.804;23.342;2023-11-21T03:09:25;74006.53;;;-148.52;100.00
3254;BME280;1639;42.804;23.342;2023-11-21T03:11:53;74006.53;;;-148.52;100.00
3254;BME280;1639;42.804;23.342;2023-11-21T03:14:18;74006.53;;;-148.52;100.00
3254;BME280;1639;42.804;23.342;2023-11-21T03:16:44;74000.31;;;-148.52;100.00
3254;BME280;1639;42.804;23.342;2023-11-21T03:19:10;74006.53;;;-148.52;100.00
3254;BME280;1639;42.804;23.342;2023-11-21T03:21:36;74018.94;;;-148.52;100.00
3254;BME280;1639;42.804;23.342;2023-11-21T03:24:01;74035.47;;;-148.52;100.00
3254;BME280;1639;42.804;23.342;2023-11-21T03:26:27;74035.47;;;-148.52;100.00
3254;BME280;1639;42.804;23.342;2023-11-21T03:28:52;74031.34;;;-148.52;100.00
3254;BME280;1639;42.804;23.342;2023-11-21T03:31:18;74041.69;;;-148.52;100.00
3254;BME280;1639;42.804;23.342;2023-11-21T03:33:45;74052.03;;;-148.52;100.00
3254;BME280;1639;42.804;23.342;2023-11-21T03:36:11;74052.03;;;-148.52;100.00
3254;BME280;1639;42.804;23.342;2023-11-21T03:38:36;74043.75;;;-148.52;100.00
3254;BME280;1639;42.804;23.342;2023-11-21T03:41:03;74033.41;;;-148.52;100.00
3254;BME280;1639;42.804;23.342;2023-11-21T03:43:29;74033.41;;;-148.52;100.00
3254;BME280;1639;42.804;23.342;2023-11-21T03:45:54;74023.06;;;-148.52;100.00
3254;BME280;1639;42.804;23.342;2023-11-21T03:48:19;74018.94;;;-148.52;100.00
3254;BME280;1639;42.804;23.342;2023-11-21T03:50:45;74029.28;;;-148.52;100.00
3254;BME280;1639;42.804;23.342;2023-11-21T03:53:12;74058.22;;;-148.52;100.00
3254;BME280;1639;42.804;23.342;2023-11-21T03:55:37;74043.75;;;-148.52;100.00
3254;BME280;1639;42.804;23.342;2023-11-21T03:58:03;74039.63;;;-148.52;100.00
3254;BME280;1639;42.804;23.342;2023-11-21T04:00:28;74039.63;;;-148.52;100.00
3254;BME280;1639;42.804;23.342;2023-11-21T04:02:54;74041.69;;;-148.52;100.00
3254;BME280;1639;42.804;23.342;2023-11-21T04:05:20;74043.75;;;-148.52;100.00
3254;BME280;1639;42.804;23.342;2023-11-21T04:07:47;74039.63;;;-148.52;100.00
3254;BME280;1639;42.804;23.342;2023-11-21T04:10:13;74039.63;;;-148.52;100.00
3254;BME280;1639;42.804;23.342;2023-11-21T04:12:38;74035.47;;;-148.52;100.00
3254;BME280;1639;42.804;23.342;2023-11-21T04:15:04;74027.22;;;-148.52;100.00
3254;BME280;1639;42.804;23.342;2023-11-21T04:17:30;74035.47;;;-148.52;100.00
3254;BME280;1639;42.804;23.342;2023-11-21T04:19:56;74039.63;;;-148.52;100.00
3254;BME280;1639;42.804;23.342;2023-11-21T04:22:21;74035.47;;;-148.52;100.00
3254;BME280;1639;42.804;23.342;2023-11-21T04:24:47;74029.28;;;-148.52;100.00
3254;BME280;1639;42.804;23.342;2023-11-21T04:27:12;74047.88;;;-148.52;100.00
3254;BME280;1639;42.804;23.342;2023-11-21T04:29:38;74058.22;;;-148.52;100.00
3254;BME280;1639;42.804;23.342;2023-11-21T04:32:04;74047.88;;;-148.52;100.00
3254;BME280;1639;42.804;23.342;2023-11-21T04:34:29;74049.97;;;-148.52;100.00
3254;BME280;1639;42.804;23.342;2023-11-21T04:36:56;74043.75;;;-148.52;100.00
3254;BME280;1639;42.804;23.342;2023-11-21T04:39:22;74043.75;;;-148.52;100.00
3254;BME280;1639;42.804;23.342;2023-11-21T04:41:47;74031.34;;;-148.52;100.00
3254;BME280;1639;42.804;23.342;2023-11-21T04:44:13;74021.00;;;-148.52;100.00
3254;BME280;1639;42.804;23.342;2023-11-21T04:46:38;74023.06;;;-148.52;100.00
3254;BME280;1639;42.804;23.342;2023-11-21T04:49:03;74025.13;;;-148.52;100.00
3254;BME280;1639;42.804;23.342;2023-11-21T04:51:29;74027.22;;;-148.52;100.00
3254;BME280;1639;42.804;23.342;2023-11-21T04:53:56;74023.06;;;-148.52;100.00
3254;BME280;1639;42.804;23.342;2023-11-21T04:56:21;74018.94;;;-148.52;100.00
3254;BME280;1639;42.804;23.342;2023-11-21T04:58:46;74027.22;;;-148.52;100.00
3254;BME280;1639;42.804;23.342;2023-11-21T05:01:12;74023.06;;;-148.52;100.00
3254;BME280;1639;42.804;23.342;2023-11-21T05:03:37;74029.28;;;-148.52;100.00
3254;BME280;1639;42.804;23.342;2023-11-21T05:06:04;74031.34;;;-148.52;100.00
3254;BME280;1639;42.804;23.342;2023-11-21T05:08:30;74037.53;;;-148.52;100.00
3254;BME280;1639;42.804;23.342;2023-11-21T05:10:56;74023.06;;;-148.52;100.00
3254;BME280;1639;42.804;23.342;2023-11-21T05:13:21;74023.06;;;-148.52;100.00
3254;BME280;1639;42.804;23.342;2023-11-21T05:15:47;74025.13;;;-148.52;100.00
3254;BME280;1639;42.804;23.342;2023-11-21T05:18:12;74043.75;;;-148.52;100.00
3254;BME280;1639;42.804;23.342;2023-11-21T05:20:41;74078.94;;;-148.52;100.00
3254;BME280;1639;42.804;23.342;2023-11-21T05:23:07;74109.94;;;-148.52;100.00
3254;BME280;1639;42.804;23.342;2023-11-21T05:25:33;74101.69;;;-148.52;100.00
3254;BME280;1639;42.804;23.342;2023-11-21T05:27:59;74081.00;;;-148.52;100.00
3254;BME280;1639;42.804;23.342;2023-11-21T05:30:26;74089.28;;;-148.52;100.00
3254;BME280;1639;42.804;23.342;2023-11-21T05:32:52;74085.13;;;-148.52;100.00
3254;BME280;1639;42.804;23.342;2023-11-21T05:35:17;74072.72;;;-148.52;100.00
3254;BME280;1639;42.804;23.342;2023-11-21T05:37:43;74068.59;;;-148.52;100.00
3254;BME280;1639;42.804;23.342;2023-11-21T05:40:09;74064.44;;;-148.52;100.00
3254;BME280;1639;42.804;23.342;2023-11-21T05:42:35;74056.16;;;-148.52;100.00
3254;BME280;1639;42.804;23.342;2023-11-21T05:45:02;74047.88;;;-148.52;100.00
3254;BME280;1639;42.804;23.342;2023-11-21T05:47:46;74043.75;;;-148.52;100.00
3254;BME280;1639;42.804;23.342;2023-11-21T05:50:14;74029.28;;;-148.52;100.00
3254;BME280;1639;42.804;23.342;2023-11-21T05:52:41;74023.06;;;-148.52;100.00
3254;BME280;1639;42.804;23.342;2023-11-21T05:55:08;74033.41;;;-148.52;100.00
3254;BME280;1639;42.804;23.342;2023-11-21T05:57:34;74029.28;;;-148.52;100.00
3254;BME280;1639;42.804;23.342;2023-11-21T06:00:13;74027.22;;;-148.52;100.00
3254;BME280;1639;42.804;23.342;2023-11-21T06:02:48;74031.34;;;-148.52;100.00
3254;BME280;1639;42.804;23.342;2023-11-21T06:05:16;74010.66;;;-148.52;100.00
3254;BME280;1639;42.804;23.342;2023-11-21T06:07:43;74000.31;;;-148.52;100.00
3254;BME280;1639;42.804;23.342;2023-11-21T06:10:08;73987.91;;;-148.52;100.00
3254;BME280;1639;42.804;23.342;2023-11-21T06:12:36;73981.69;;;-148.52;100.00
3254;BME280;1639;42.804;23.342;2023-11-21T06:15:03;73979.63;;;-148.52;100.00
3254;BME280;1639;42.804;23.342;2023-11-21T06:17:33;73967.22;;;-148.52;100.00
3254;BME280;1639;42.804;23.342;2023-11-21T06:20:02;73965.16;;;-148.52;100.00
3254;BME280;1639;42.804;23.342;2023-11-21T06:22:34;73961.00;;;-148.52;100.00
3254;BME280;1639;42.804;23.342;2023-11-21T06:25:00;73969.28;;;-148.52;100.00
3254;BME280;1639;42.804;23.342;2023-11-21T06:27:25;73981.69;;;-148.52;100.00
3254;BME280;1639;42.804;23.342;2023-11-21T06:29:50;73971.34;;;-148.52;100.00
3254;BME280;1639;42.804;23.342;2023-11-21T06:32:16;73969.28;;;-148.52;100.00
3254;BME280;1639;42.804;23.342;2023-11-21T06:34:41;73967.22;;;-148.52;100.00
3254;BME280;1639;42.804;23.342;2023-11-21T06:37:07;73950.66;;;-148.52;100.00
3254;BME280;1639;42.804;23.342;2023-11-21T06:39:32;73940.31;;;-148.52;100.00
3254;BME280;1639;42.804;23.342;2023-11-21T06:41:57;73927.91;;;-148.52;100.00
3254;BME280;1639;42.804;23.342;2023-11-21T06:44:25;73919.63;;;-148.52;100.00
3254;BME280;1639;42.804;23.342;2023-11-21T06:46:50;73919.63;;;-148.52;100.00
3254;BME280;1639;42.804;23.342;2023-11-21T06:49:16;73903.09;;;-148.52;100.00
3254;BME280;1639;42.804;23.342;2023-11-21T06:51:42;73882.41;;;-148.52;100.00
3254;BME280;1639;42.804;23.342;2023-11-21T06:54:07;73859.63;;;-148.52;100.00
3254;BME280;1639;42.804;23.342;2023-11-21T06:56:32;73830.69;;;-148.52;100.00
3254;BME280;1639;42.804;23.342;2023-11-21T06:58:58;73803.78;;;-148.52;100.00
3254;BME280;1639;42.804;23.342;2023-11-21T07:01:23;73774.81;;;-148.52;100.00
3254;BME280;1639;42.804;23.342;2023-11-21T07:03:49;73758.28;;;-148.52;100.00
3254;BME280;1639;42.804;23.342;2023-11-21T07:06:15;73741.72;;;-148.52;100.00
3254;BME280;1639;42.804;23.342;2023-11-21T07:08:40;73700.34;;;-148.52;100.00
3254;BME280;1639;42.804;23.342;2023-11-21T07:11:06;73661.06;;;-148.52;97.27
3254;BME280;1639;42.804;23.342;2023-11-21T07:13:32;73644.50;;;-148.52;93.59
3254;BME280;1639;42.804;23.342;2023-11-21T07:15:58;73617.63;;;-148.52;92.95
3254;BME280;1639;42.804;23.342;2023-11-21T07:18:24;73596.94;;;-148.52;92.04
3254;BME280;1639;42.804;23.342;2023-11-21T07:20:49;73578.31;;;-148.52;91.20
3254;BME280;1639;42.804;23.342;2023-11-21T07:23:15;73549.34;;;-148.52;90.29
3254;BME280;1639;42.804;23.342;2023-11-21T07:25:40;73514.19;;;-148.52;88.57
3254;BME280;1639;42.804;23.342;2023-11-21T07:28:06;73497.63;;;-148.52;83.09
3254;BME280;1639;42.804;23.342;2023-11-21T07:30:32;73499.72;;;-148.52;81.94
3254;BME280;1639;42.804;23.342;2023-11-21T07:32:57;73485.22;;;-148.52;82.06
3254;BME280;1639;42.804;23.342;2023-11-21T07:35:23;73474.88;;;-148.52;81.29
3254;BME280;1639;42.804;23.342;2023-11-21T07:37:48;73470.75;;;-148.52;80.97
3254;BME280;1639;42.804;23.342;2023-11-21T07:40:14;73464.53;;;-148.52;80.72
3254;BME280;1639;42.804;23.342;2023-11-21T07:42:39;73416.97;;;-148.52;80.71
3254;BME280;1639;42.804;23.342;2023-11-21T07:45:05;73385.94;;;-148.52;79.20
3254;BME280;1639;42.804;23.342;2023-11-21T07:47:32;73369.41;;;-148.52;79.19
3254;BME280;1639;42.804;23.342;2023-11-21T07:50:00;73352.84;;;-148.52;76.93
3254;BME280;1639;42.804;23.342;2023-11-21T07:52:25;73359.06;;;-148.52;76.54
3254;BME280;1639;42.804;23.342;2023-11-21T07:54:50;73357.00;;;-148.52;76.90
3254;BME280;1639;42.804;23.342;2023-11-21T07:57:16;73377.66;;;-148.52;77.15
3254;BME280;1639;42.804;23.342;2023-11-21T07:59:41;73373.53;;;-148.52;78.29
3254;BME280;1639;42.804;23.342;2023-11-21T08:02:07;73357.00;;;-148.52;77.49
3254;BME280;1639;42.804;23.342;2023-11-21T08:04:32;73357.00;;;-148.52;77.09
3254;BME280;1639;42.804;23.342;2023-11-21T08:06:58;73340.44;;;-148.52;77.24
3254;BME280;1639;42.804;23.342;2023-11-21T08:09:23;73330.09;;;-148.52;76.51
3254;BME280;1639;42.804;23.342;2023-11-21T08:11:49;73328.03;;;-148.52;75.89
3254;BME280;1639;42.804;23.342;2023-11-21T08:14:15;73352.84;;;-148.52;75.93
3254;BME280;1639;42.804;23.342;2023-11-21T08:16:40;73390.09;;;-148.52;77.22
3254;BME280;1639;42.804;23.342;2023-11-21T08:19:06;73423.19;;;-148.52;78.26
3254;BME280;1639;42.804;23.342;2023-11-21T08:21:31;73439.72;;;-148.52;79.94
3254;BME280;1639;42.804;23.342;2023-11-21T08:23:56;73472.81;;;-148.52;82.16
3254;BME280;1639;42.804;23.342;2023-11-21T08:26:22;73489.38;;;-148.52;84.31
3254;BME280;1639;42.804;23.342;2023-11-21T08:28:47;73507.97;;;-148.52;86.15
3254;BME280;1639;42.804;23.342;2023-11-21T08:31:13;73510.06;;;-148.52;88.52
3254;BME280;1639;42.804;23.342;2023-11-21T08:33:38;73514.19;;;-148.52;89.87
3254;BME280;1639;42.804;23.342;2023-11-21T08:36:08;73512.13;;;-148.52;90.33
3254;BME280;1639;42.804;23.342;2023-11-21T08:38:34;73505.91;;;-148.52;91.84
3254;BME280;1639;42.804;23.342;2023-11-21T08:41:06;73510.06;;;-148.52;92.59
3254;BME280;1639;42.804;23.342;2023-11-21T08:43:36;73489.38;;;-148.52;93.14
3254;BME280;1639;42.804;23.342;2023-11-21T08:46:05;73485.22;;;-148.52;92.89
3254;BME280;1639;42.804;23.342;2023-11-21T08:48:31;73474.88;;;-148.52;93.18
3254;BME280;1639;42.804;23.342;2023-11-21T08:50:56;73460.41;;;-148.52;93.97
3254;BME280;1639;42.804;23.342;2023-11-21T08:53:22;73452.13;;;-148.52;94.10
3254;BME280;1639;42.804;23.342;2023-11-21T08:55:47;73466.63;;;-148.52;93.65
3254;BME280;1639;42.804;23.342;2023-11-21T08:58:13;73464.53;;;-148.52;94.05
3254;BME280;1639;42.804;23.342;2023-11-21T09:00:39;73443.84;;;-148.52;93.57
3254;BME280;1639;42.804;23.342;2023-11-21T09:03:05;73431.44;;;-148.52;92.47
3254;BME280;1639;42.804;23.342;2023-11-21T09:05:34;73414.91;;;-148.52;91.20
3254;BME280;1639;42.804;23.342;2023-11-21T09:07:59;73412.84;;;-148.52;90.93
3254;BME280;1639;42.804;23.342;2023-11-21T09:10:24;73408.69;;;-148.52;91.37
3254;BME280;1639;42.804;23.342;2023-11-21T09:12:50;73452.13;;;-148.52;93.79
3254;BME280;1639;42.804;23.342;2023-11-21T09:15:17;73423.19;;;-148.52;93.71
3254;BME280;1639;42.804;23.342;2023-11-21T09:17:43;73392.16;;;-148.52;91.00
3254;BME280;1639;42.804;23.342;2023-11-21T09:20:10;73371.47;;;-148.52;89.90
3254;BME280;1639;42.804;23.342;2023-11-21T09:22:35;73357.00;;;-148.52;89.60
3254;BME280;1639;42.804;23.342;2023-11-21T09:25:01;73344.56;;;-148.52;89.51
3254;BME280;1639;42.804;23.342;2023-11-21T09:27:30;73336.31;;;-148.52;88.70
3254;BME280;1639;42.804;23.342;2023-11-21T09:29:56;73323.91;;;-148.52;89.58
3254;BME280;1639;42.804;23.342;2023-11-21T09:32:23;73311.47;;;-148.52;88.09
3254;BME280;1639;42.804;23.342;2023-11-21T09:34:50;73303.22;;;-148.52;88.92
3254;BME280;1639;42.804;23.342;2023-11-21T09:37:16;73282.53;;;-148.52;89.02
3254;BME280;1639;42.804;23.342;2023-11-21T09:39:41;73259.78;;;-148.52;88.12
3254;BME280;1639;42.804;23.342;2023-11-21T09:42:12;73247.38;;;-148.52;87.93
3254;BME280;1639;42.804;23.342;2023-11-21T09:47:15;73224.63;;;-148.52;86.72
3254;BME280;1639;42.804;23.342;2023-11-21T09:49:44;73208.06;;;-148.52;87.06
3254;BME280;1639;42.804;23.342;2023-11-21T09:52:18;73185.31;;;-148.52;87.86
3254;BME280;1639;42.804;23.342;2023-11-21T09:54:49;73177.03;;;-148.52;87.05
3254;BME280;1639;42.804;23.342;2023-11-21T09:57:15;73168.75;;;-148.52;87.16
3254;BME280;1639;42.804;23.342;2023-11-21T09:59:41;73162.56;;;-148.52;87.61
3254;BME280;1639;42.804;23.342;2023-11-21T10:02:08;73146.00;;;-148.52;87.35
3254;BME280;1639;42.804;23.342;2023-11-21T10:04:38;73121.19;;;-148.52;86.37
3254;BME280;1639;42.804;23.342;2023-11-21T10:07:04;73121.19;;;-148.52;86.72
3254;BME280;1639;42.804;23.342;2023-11-21T10:09:35;73100.50;;;-148.52;84.67
3254;BME280;1639;42.804;23.342;2023-11-21T10:12:03;73088.09;;;-148.52;82.46
3254;BME280;1639;42.804;23.342;2023-11-21T10:14:32;73079.84;;;-148.52;81.44
3254;BME280;1639;42.804;23.342;2023-11-21T10:16:58;73073.63;;;-148.52;81.84
3254;BME280;1639;42.804;23.342;2023-11-21T10:19:24;73063.28;;;-148.52;79.78
3254;BME280;1639;42.804;23.342;2023-11-21T10:21:51;73067.41;;;-148.52;78.64
3254;BME280;1639;42.804;23.342;2023-11-21T10:24:17;73067.41;;;-148.52;77.09
3254;BME280;1639;42.804;23.342;2023-11-21T10:26:43;73063.28;;;-148.52;78.50
3254;BME280;1639;42.804;23.342;2023-11-21T10:29:13;73046.75;;;-148.52;79.61
3254;BME280;1639;42.804;23.342;2023-11-21T10:31:42;73028.13;;;-148.52;79.04
3254;BME280;1639;42.804;23.342;2023-11-21T10:34:25;73015.72;;;-148.52;77.78
3254;BME280;1639;42.804;23.342;2023-11-21T10:36:52;72997.09;;;-148.52;77.05
3254;BME280;1639;42.804;23.342;2023-11-21T10:39:19;72966.06;;;-148.52;76.85
3254;BME280;1639;42.804;23.342;2023-11-21T10:41:46;72955.75;;;-148.52;75.65
3254;BME280;1639;42.804;23.342;2023-11-21T10:44:16;72941.25;;;-148.52;74.38
3254;BME280;1639;42.804;23.342;2023-11-21T10:46:47;72914.38;;;-148.52;77.49
3254;BME280;1639;42.804;23.342;2023-11-21T10:49:17;72906.09;;;-148.52;73.24
3254;BME280;1639;42.804;23.342;2023-11-21T10:51:43;72899.91;;;-148.52;72.80
3254;BME280;1639;42.804;23.342;2023-11-21T10:54:09;72904.03;;;-148.52;71.67
3254;BME280;1639;42.804;23.342;2023-11-21T10:56:35;72912.31;;;-148.52;72.06
3254;BME280;1639;42.804;23.342;2023-11-21T10:59:10;72914.38;;;-148.52;71.95
3254;BME280;1639;42.804;23.342;2023-11-21T11:01:42;72897.81;;;-148.52;71.47
3254;BME280;1639;42.804;23.342;2023-11-21T11:04:08;72893.69;;;-148.52;71.25
3254;BME280;1639;42.804;23.342;2023-11-21T11:06:41;72893.69;;;-148.52;71.25
3254;BME280;1639;42.804;23.342;2023-11-21T11:09:08;72922.66;;;-148.52;71.75
3254;BME280;1639;42.804;23.342;2023-11-21T11:11:39;72926.78;;;-148.52;72.54
3254;BME280;1639;42.804;23.342;2023-11-21T11:14:08;72922.66;;;-148.52;71.10
3254;BME280;1639;42.804;23.342;2023-11-21T11:16:36;72926.78;;;-148.52;72.60
3254;BME280;1639;42.804;23.342;2023-11-21T11:19:05;72914.38;;;-148.52;71.48
3254;BME280;1639;42.804;23.342;2023-11-21T11:21:47;72941.25;;;-148.52;72.29
3254;BME280;1639;42.804;23.342;2023-11-21T11:26:52;72893.69;;;-148.52;72.13
3254;BME280;1639;42.804;23.342;2023-11-21T11:34:29;72889.56;;;-148.52;72.62
3254;BME280;1639;42.804;23.342;2023-11-21T11:37:03;72883.34;;;-148.52;72.34
3254;BME280;1639;42.804;23.342;2023-11-21T11:39:37;72868.88;;;-148.52;72.47
3254;BME280;1639;42.804;23.342;2023-11-21T11:42:08;72873.00;;;-148.52;71.97
3254;BME280;1639;42.804;23.342;2023-11-21T11:44:52;72860.59;;;-148.52;71.68
3254;BME280;1639;42.804;23.342;2023-11-21T11:47:28;72860.59;;;-148.52;71.03
3254;BME280;1639;42.804;23.342;2023-11-21T11:52:47;72873.00;;;-148.52;71.78
3254;BME280;1639;42.804;23.342;2023-11-21T11:55:17;72864.75;;;-148.52;72.08
3254;BME280;1639;42.804;23.342;2023-11-21T11:57:48;72866.81;;;-148.52;72.87
3254;BME280;1639;42.804;23.342;2023-11-21T12:00:33;72873.00;;;-148.52;74.08
3254;BME280;1639;42.804;23.342;2023-11-21T12:03:03;72870.94;;;-148.52;75.30
3254;BME280;1639;42.804;23.342;2023-11-21T12:05:30;72877.16;;;-148.52;76.37
3254;BME280;1639;42.804;23.342;2023-11-21T12:08:07;72889.56;;;-148.52;77.57
3254;BME280;1639;42.804;23.342;2023-11-21T12:10:37;72897.81;;;-148.52;78.35
3254;BME280;1639;42.804;23.342;2023-11-21T12:13:07;72895.75;;;-148.52;79.53
3254;BME280;1639;42.804;23.342;2023-11-21T12:15:33;72910.25;;;-148.52;81.38
3254;BME280;1639;42.804;23.342;2023-11-21T12:18:00;72897.81;;;-148.52;82.29
3254;BME280;1639;42.804;23.342;2023-11-21T12:20:26;72897.81;;;-148.52;83.46
3254;BME280;1639;42.804;23.342;2023-11-21T12:22:54;72899.91;;;-148.52;84.93
3254;BME280;1639;42.804;23.342;2023-11-21T12:25:24;72897.81;;;-148.52;86.40
3254;BME280;1639;42.804;23.342;2023-11-21T12:27:53;72895.75;;;-148.52;87.44
3254;BME280;1639;42.804;23.342;2023-11-21T12:30:24;72895.75;;;-148.52;89.18
3254;BME280;1639;42.804;23.342;2023-11-21T12:32:51;72895.75;;;-148.52;90.96
3254;BME280;1639;42.804;23.342;2023-11-21T12:35:17;72897.81;;;-148.52;92.62
3254;BME280;1639;42.804;23.342;2023-11-21T12:37:45;72914.38;;;-148.52;94.87
3254;BME280;1639;42.804;23.342;2023-11-21T12:40:13;72906.09;;;-148.52;97.25
3254;BME280;1639;42.804;23.342;2023-11-21T12:42:45;72893.69;;;-148.52;99.31
3254;BME280;1639;42.804;23.342;2023-11-21T12:47:44;72870.94;;;-148.52;100.00
3254;BME280;1639;42.804;23.342;2023-11-21T12:50:10;72868.88;;;-148.52;100.00
3254;BME280;1639;42.804;23.342;2023-11-21T12:52:44;72868.88;;;-148.52;100.00
3254;BME280;1639;42.804;23.342;2023-11-21T12:55:20;72908.16;;;-148.52;100.00
3254;BME280;1639;42.804;23.342;2023-11-21T12:57:53;72877.16;;;-148.52;100.00
3254;BME280;1639;42.804;23.342;2023-11-21T13:00:33;72868.88;;;-148.52;100.00